Time;durP1;ratioP1;P1;durP2;ratioP2;P2;SDS_P1;SDS_P2;PMS_P1;PMS_P2;Temp;Humidity;BMP_temperature;BMP_pressure;BME280_temperature;BME280_humidity;BME280_pressure;Samples;Min_cycle;Max_cycle;Signal;HPM_P1;HPM_P2
2022/12/26 00:01:19;;;;;;;1.70;1.60;;;8.80;99.90;;;;;;5027513;28;20056;-69
2022/12/26 00:03:44;;;;;;;1.02;1.02;;;8.80;99.90;;;;;;5024329;28;20053;-69
2022/12/26 00:06:12;;;;;;;0.43;0.43;;;8.80;99.90;;;;;;5027827;28;20052;-69
2022/12/26 00:08:38;;;;;;;1.08;1.08;;;8.80;99.90;;;;;;5027561;28;20037;-69
2022/12/26 00:11:03;;;;;;;1.15;1.05;;;8.80;99.90;;;;;;5026591;28;20037;-69
2022/12/26 00:13:29;;;;;;;0.88;0.88;;;8.80;99.90;;;;;;5025946;28;20113;-70
2022/12/26 00:15:54;;;;;;;1.50;1.13;;;8.70;99.90;;;;;;5028570;28;20500;-69
2022/12/26 00:18:20;;;;;;;0.30;0.30;;;8.70;99.90;;;;;;5025528;28;20045;-69
2022/12/26 00:20:45;;;;;;;1.30;0.43;;;8.70;99.90;;;;;;5028757;28;20057;-69
2022/12/26 00:23:11;;;;;;;6.55;1.75;;;8.80;99.90;;;;;;5028554;28;20041;-69
2022/12/26 00:25:37;;;;;;;0.38;0.38;;;8.70;99.90;;;;;;5026713;28;20045;-69
2022/12/26 00:28:02;;;;;;;0.85;0.85;;;8.70;99.90;;;;;;5027751;28;20532;-69
2022/12/26 00:30:28;;;;;;;0.43;0.43;;;8.70;99.90;;;;;;5025577;28;20054;-69
2022/12/26 00:32:53;;;;;;;0.20;0.20;;;8.70;99.90;;;;;;5028480;28;20099;-69
2022/12/26 00:35:19;;;;;;;0.25;0.25;;;8.70;99.90;;;;;;5028868;28;20060;-69
2022/12/26 00:37:44;;;;;;;0.60;0.60;;;8.70;99.90;;;;;;5028201;28;20038;-69
2022/12/26 00:40:10;;;;;;;1.00;1.00;;;8.70;99.90;;;;;;5027836;28;20401;-69
2022/12/26 00:42:36;;;;;;;0.17;0.17;;;8.70;99.90;;;;;;5029388;28;20041;-69
2022/12/26 00:45:02;;;;;;;0.50;0.50;;;8.70;99.90;;;;;;5027519;28;20554;-69
2022/12/26 00:47:27;;;;;;;0.68;0.68;;;8.70;99.90;;;;;;5028024;28;20053;-69
2022/12/26 00:49:53;;;;;;;1.90;1.58;;;8.70;99.90;;;;;;5026418;28;20049;-69
2022/12/26 00:52:19;;;;;;;4.88;2.20;;;8.60;99.90;;;;;;5027864;28;20044;-69
2022/12/26 00:54:44;;;;;;;0.38;0.38;;;8.60;99.90;;;;;;5028843;28;20049;-69
2022/12/26 00:57:10;;;;;;;2.28;2.10;;;8.60;99.90;;;;;;5027162;28;20116;-69
2022/12/26 00:59:35;;;;;;;2.70;2.53;;;8.60;99.90;;;;;;5028254;28;20052;-69
2022/12/26 01:02:36;;;;;;;0.22;0.22;;;8.60;99.90;;;;;;5028878;28;20609;-69
2022/12/26 01:04:46;;;;;;;0.60;0.60;;;8.60;99.90;;;;;;5043517;28;20053;-69
2022/12/26 01:07:12;;;;;;;1.20;1.17;;;8.60;99.90;;;;;;5022543;28;20053;-69
2022/12/26 01:09:37;;;;;;;0.40;0.40;;;8.60;99.90;;;;;;5026012;28;20042;-69
2022/12/26 01:12:03;;;;;;;0.30;0.30;;;8.60;99.90;;;;;;5028016;28;20080;-69
2022/12/26 01:14:29;;;;;;;0.90;0.90;;;8.60;99.90;;;;;;5027194;28;20504;-69
2022/12/26 01:16:54;;;;;;;0.40;0.40;;;8.60;99.90;;;;;;5029073;28;20045;-69
2022/12/26 01:19:20;;;;;;;0.68;0.68;;;8.60;99.90;;;;;;5024051;28;20041;-69
2022/12/26 01:21:45;;;;;;;4.03;2.33;;;8.60;99.90;;;;;;5027285;28;20056;-69
2022/12/26 01:24:12;;;;;;;0.10;0.10;;;8.60;99.90;;;;;;5026210;28;20042;-70
2022/12/26 01:26:38;;;;;;;1.05;1.05;;;8.60;99.90;;;;;;5023555;28;20168;-70
2022/12/26 01:29:03;;;;;;;1.90;1.63;;;8.60;99.90;;;;;;5026750;28;20144;-69
2022/12/26 01:31:29;;;;;;;0.25;0.25;;;8.70;99.90;;;;;;5026751;28;20041;-69
2022/12/26 01:33:54;;;;;;;0.65;0.65;;;8.70;99.90;;;;;;5024313;28;20052;-70
2022/12/26 01:36:20;;;;;;;0.50;0.50;;;8.70;99.90;;;;;;5027794;28;20049;-69
2022/12/26 01:38:46;;;;;;;1.23;1.05;;;8.70;99.90;;;;;;5025733;28;20056;-70
2022/12/26 01:41:20;;;;;;;0.30;0.30;;;8.70;99.90;;;;;;5028254;28;20049;-69
2022/12/26 01:43:51;;;;;;;0.38;0.38;;;8.70;99.90;;;;;;5028096;28;20041;-70
2022/12/26 01:46:19;;;;;;;0.63;0.63;;;8.70;99.90;;;;;;5027339;28;20042;-69
2022/12/26 01:48:46;;;;;;;0.32;0.32;;;8.70;99.90;;;;;;5027308;28;20049;-70
2022/12/26 01:51:13;;;;;;;0.55;0.55;;;8.70;99.90;;;;;;5028392;28;20045;-70
2022/12/26 01:53:42;;;;;;;0.98;0.98;;;8.80;99.90;;;;;;5027222;28;20045;-70
2022/12/26 01:56:13;;;;;;;4.07;2.78;;;8.70;99.90;;;;;;5024280;28;20589;-70
2022/12/26 01:58:43;;;;;;;0.95;0.95;;;8.70;99.90;;;;;;5023696;28;20050;-70
2022/12/26 02:01:11;;;;;;;0.75;0.75;;;8.70;99.90;;;;;;5023299;28;20053;-70
2022/12/26 02:06:25;;;;;;;2.92;1.13;;;8.70;99.90;;;;;;5015815;28;20529;-70
2022/12/26 02:08:52;;;;;;;0.10;0.10;;;8.80;99.90;;;;;;5019480;28;20049;-70
2022/12/26 02:11:26;;;;;;;1.15;0.77;;;8.80;99.90;;;;;;5027572;28;20455;-70
2022/12/26 02:13:52;;;;;;;1.10;1.00;;;8.80;99.90;;;;;;5041947;28;20049;-70
2022/12/26 02:16:19;;;;;;;0.45;0.45;;;8.80;99.90;;;;;;5028018;28;20080;-70
2022/12/26 02:18:45;;;;;;;0.22;0.22;;;8.90;99.90;;;;;;5026982;28;20048;-70
2022/12/26 02:21:30;;;;;;;0.50;0.50;;;8.90;99.90;;;;;;5026570;28;20045;-70
2022/12/26 02:24:14;;;;;;;0.73;0.63;;;8.90;99.90;;;;;;5024615;28;20053;-70
2022/12/26 02:26:52;;;;;;;1.08;0.85;;;8.90;99.90;;;;;;5009694;28;20054;-70
2022/12/26 02:29:48;;;;;;;0.63;0.63;;;9.00;99.90;;;;;;5011983;28;20175;-70
2022/12/26 02:32:47;;;;;;;0.25;0.25;;;8.90;99.90;;;;;;5028792;28;20045;-70
2022/12/26 02:35:22;;;;;;;1.80;1.70;;;8.90;99.90;;;;;;5030537;28;20057;-70
2022/12/26 02:38:09;;;;;;;0.20;0.20;;;8.90;99.90;;;;;;5030380;28;20103;-70
2022/12/26 02:41:11;;;;;;;1.60;1.10;;;8.90;99.90;;;;;;5026036;28;20054;-70
2022/12/26 02:43:58;;;;;;;0.32;0.32;;;8.90;99.90;;;;;;5009548;28;20049;-70
2022/12/26 02:47:04;;;;;;;1.02;0.98;;;8.90;99.90;;;;;;5030062;28;20054;-70
2022/12/26 03:13:18;;;;;;;0.32;0.32;;;8.90;99.90;;;;;;5029003;28;20045;-71
2022/12/26 03:18:50;;;;;;;1.20;1.10;;;8.90;99.90;;;;;;5029536;28;20405;-71
2022/12/26 03:21:21;;;;;;;0.60;0.60;;;8.90;99.90;;;;;;5029288;28;20656;-70
2022/12/26 03:23:50;;;;;;;4.70;4.22;;;8.90;99.90;;;;;;5027545;28;20048;-70
2022/12/26 03:26:39;;;;;;;0.68;0.68;;;8.90;99.90;;;;;;5027406;28;20081;-70
2022/12/26 03:32:05;;;;;;;1.73;1.63;;;8.90;99.90;;;;;;5027949;28;20041;-70
2022/12/26 03:34:31;;;;;;;1.35;0.93;;;8.90;99.90;;;;;;5021130;28;20052;-70
2022/12/26 03:37:17;;;;;;;1.42;1.38;;;8.90;99.90;;;;;;5026886;28;20038;-70
2022/12/26 04:44:01;;;;;;;1.33;1.25;;;8.90;99.90;;;;;;5029142;28;20056;-70
2022/12/26 04:46:29;;;;;;;4.45;2.28;;;8.90;99.90;;;;;;5042775;28;20049;-69
2022/12/26 04:51:40;;;;;;;0.60;0.57;;;8.90;99.90;;;;;;5027456;28;20072;-69
2022/12/26 04:54:06;;;;;;;1.35;1.10;;;8.90;99.90;;;;;;5026789;28;20049;-69
2022/12/26 04:56:32;;;;;;;10.07;2.60;;;8.90;99.90;;;;;;5026092;28;20140;-70
2022/12/26 04:58:58;;;;;;;0.25;0.25;;;8.90;99.90;;;;;;5027776;28;20182;-70
2022/12/26 05:09:52;;;;;;;2.38;2.28;;;8.70;99.90;;;;;;5028938;28;20089;-70
2022/12/26 05:12:19;;;;;;;3.67;1.75;;;8.70;99.90;;;;;;5025917;28;20052;-69
2022/12/26 05:14:44;;;;;;;0.35;0.35;;;8.70;99.90;;;;;;5021902;28;20037;-70
2022/12/26 05:31:03;;;;;;;1.05;1.05;;;8.70;99.90;;;;;;5008503;28;20486;-69
2022/12/26 05:36:15;;;;;;;0.65;0.65;;;8.80;99.90;;;;;;5022063;28;20554;-69
2022/12/26 05:38:40;;;;;;;0.63;0.63;;;8.80;99.90;;;;;;5027163;28;20478;-69
2022/12/26 05:41:06;;;;;;;0.30;0.30;;;8.80;99.90;;;;;;5026836;28;20061;-70
2022/12/26 05:43:31;;;;;;;0.75;0.75;;;8.80;99.90;;;;;;5025476;28;20409;-69
2022/12/26 05:45:57;;;;;;;2.58;1.20;;;8.80;99.90;;;;;;5028026;28;20045;-69
2022/12/26 05:48:23;;;;;;;0.65;0.65;;;8.80;99.90;;;;;;5026826;28;20057;-70
2022/12/26 05:50:48;;;;;;;5.10;1.40;;;8.80;99.90;;;;;;5025470;28;20041;-70
2022/12/26 05:53:14;;;;;;;0.60;0.60;;;8.80;99.90;;;;;;5027291;28;20052;-69
2022/12/26 05:55:41;;;;;;;0.52;0.52;;;8.80;99.90;;;;;;5026445;28;20045;-69
2022/12/26 05:58:06;;;;;;;1.17;1.13;;;8.90;99.90;;;;;;5026446;28;20116;-69
2022/12/26 06:00:32;;;;;;;1.65;1.55;;;8.90;99.90;;;;;;5028759;28;20412;-69
2022/12/26 06:02:59;;;;;;;0.63;0.63;;;8.90;99.90;;;;;;5031165;28;20045;-69
2022/12/26 06:05:25;;;;;;;2.67;1.17;;;8.90;99.90;;;;;;5031231;28;20033;-69
2022/12/26 06:07:51;;;;;;;0.95;0.95;;;8.90;99.90;;;;;;5030980;28;20052;-69
2022/12/26 06:10:17;;;;;;;0.98;0.85;;;8.90;99.90;;;;;;5030651;28;20041;-69
2022/12/26 06:12:43;;;;;;;0.25;0.25;;;8.90;99.90;;;;;;5031183;28;20096;-70
2022/12/26 06:15:09;;;;;;;0.52;0.52;;;8.90;99.90;;;;;;5031132;28;20041;-69
2022/12/26 06:17:35;;;;;;;0.20;0.20;;;8.90;99.90;;;;;;5030574;28;20064;-69
2022/12/26 06:20:01;;;;;;;0.82;0.82;;;8.90;99.90;;;;;;5031983;28;20661;-69
2022/12/26 06:22:28;;;;;;;0.50;0.50;;;8.90;99.90;;;;;;5022013;28;20416;-69
2022/12/26 06:24:54;;;;;;;0.57;0.57;;;8.90;99.90;;;;;;5029199;28;20041;-69
2022/12/26 06:27:19;;;;;;;7.22;1.98;;;8.90;99.90;;;;;;5028372;28;20056;-69
2022/12/26 06:29:45;;;;;;;2.50;1.77;;;8.90;99.90;;;;;;5030841;28;20045;-70
2022/12/26 06:32:10;;;;;;;0.60;0.60;;;8.80;99.90;;;;;;5028920;28;20045;-69
2022/12/26 06:34:36;;;;;;;0.00;0.00;;;8.90;99.90;;;;;;5031482;28;20045;-69
2022/12/26 06:37:02;;;;;;;0.77;0.65;;;8.90;99.90;;;;;;5028851;28;20049;-69
2022/12/26 06:39:27;;;;;;;6.88;1.67;;;8.80;99.90;;;;;;5031230;28;20504;-69
2022/12/26 06:41:53;;;;;;;1.05;0.85;;;8.80;99.90;;;;;;5031323;28;20281;-69
2022/12/26 06:44:19;;;;;;;0.40;0.40;;;8.70;99.90;;;;;;5026422;28;20061;-69
2022/12/26 06:46:44;;;;;;;0.50;0.50;;;8.70;99.90;;;;;;5030632;28;20045;-69
2022/12/26 06:49:10;;;;;;;0.68;0.55;;;8.70;99.90;;;;;;5029990;28;20069;-69
2022/12/26 06:51:36;;;;;;;2.92;1.88;;;8.70;99.90;;;;;;5028746;28;20100;-68
2022/12/26 06:54:02;;;;;;;0.08;0.08;;;8.70;99.90;;;;;;5028085;28;20507;-69
2022/12/26 06:56:28;;;;;;;0.35;0.35;;;8.70;99.90;;;;;;5030157;28;20128;-69
2022/12/26 06:58:56;;;;;;;0.55;0.55;;;8.70;99.90;;;;;;5027281;28;20049;-69
2022/12/26 07:01:23;;;;;;;0.25;0.25;;;8.70;99.90;;;;;;5029294;28;20128;-68
2022/12/26 07:03:51;;;;;;;0.73;0.73;;;8.70;99.90;;;;;;5029964;28;20049;-69
2022/12/26 07:06:19;;;;;;;0.95;0.95;;;8.70;99.90;;;;;;5027959;28;20037;-69
2022/12/26 07:08:45;;;;;;;0.25;0.25;;;8.70;99.90;;;;;;5023736;28;20545;-69
2022/12/26 07:11:19;;;;;;;0.32;0.32;;;8.70;99.90;;;;;;5028708;28;20144;-69
2022/12/26 07:13:45;;;;;;;0.30;0.30;;;8.70;99.90;;;;;;5028292;28;20374;-69
2022/12/26 07:16:10;;;;;;;0.25;0.25;;;8.70;99.90;;;;;;5031336;28;20033;-69
2022/12/26 07:18:36;;;;;;;0.40;0.40;;;8.70;99.90;;;;;;5030113;28;20049;-69
2022/12/26 07:21:10;;;;;;;0.68;0.68;;;8.70;99.90;;;;;;5027603;28;20052;-69
2022/12/26 07:23:36;;;;;;;4.07;2.20;;;8.70;99.90;;;;;;5027791;28;20497;-69
2022/12/26 07:26:02;;;;;;;0.50;0.50;;;8.60;99.90;;;;;;5028150;28;20037;-70
2022/12/26 07:28:28;;;;;;;0.32;0.32;;;8.60;99.90;;;;;;5022951;28;20127;-69
2022/12/26 07:30:54;;;;;;;0.47;0.47;;;8.60;99.90;;;;;;5027137;28;20088;-69
2022/12/26 07:33:20;;;;;;;1.65;0.68;;;8.60;99.90;;;;;;5028846;28;20049;-69
2022/12/26 07:35:45;;;;;;;0.10;0.10;;;8.50;99.90;;;;;;5029287;28;20561;-69
2022/12/26 07:38:12;;;;;;;0.73;0.73;;;8.50;99.90;;;;;;5030779;28;20037;-70
2022/12/26 07:40:38;;;;;;;0.30;0.30;;;8.50;99.90;;;;;;5018167;28;20061;-69
2022/12/26 07:43:03;;;;;;;0.20;0.20;;;8.50;99.90;;;;;;5044786;28;20049;-69
2022/12/26 07:45:29;;;;;;;0.52;0.52;;;8.50;99.90;;;;;;5028490;28;20049;-69
2022/12/26 07:47:56;;;;;;;0.20;0.20;;;8.50;99.90;;;;;;5043515;28;20061;-69
2022/12/26 07:50:22;;;;;;;0.20;0.20;;;8.50;99.90;;;;;;5027107;28;20049;-69
2022/12/26 07:52:48;;;;;;;0.10;0.10;;;8.60;99.90;;;;;;5023715;28;20069;-69
2022/12/26 07:55:14;;;;;;;2.30;1.30;;;8.60;99.90;;;;;;5043741;28;20780;-69
2022/12/26 07:57:39;;;;;;;0.10;0.10;;;8.60;99.90;;;;;;5028952;28;20096;-69
2022/12/26 08:00:05;;;;;;;0.30;0.30;;;8.60;99.90;;;;;;5028887;28;20059;-69
2022/12/26 08:02:31;;;;;;;0.30;0.30;;;8.60;99.90;;;;;;5028330;28;20132;-70
2022/12/26 08:04:56;;;;;;;0.57;0.57;;;8.60;99.90;;;;;;5028401;28;20148;-70
2022/12/26 08:07:22;;;;;;;0.52;0.52;;;8.70;99.90;;;;;;5029314;28;20158;-69
2022/12/26 08:09:48;;;;;;;0.10;0.10;;;8.70;99.90;;;;;;5024488;28;20119;-70
2022/12/26 08:12:13;;;;;;;0.20;0.20;;;8.80;99.90;;;;;;5028574;28;20046;-70
2022/12/26 08:14:40;;;;;;;0.63;0.63;;;8.80;99.90;;;;;;5028976;28;20045;-70
2022/12/26 08:17:06;;;;;;;0.10;0.10;;;8.80;99.90;;;;;;5028050;28;20033;-70
2022/12/26 08:19:31;;;;;;;0.10;0.10;;;8.90;99.90;;;;;;5028293;28;20556;-70
2022/12/26 08:21:57;;;;;;;0.00;0.00;;;8.80;99.90;;;;;;5044670;28;20643;-71
2022/12/26 08:24:23;;;;;;;0.30;0.30;;;8.80;99.90;;;;;;5025254;28;20492;-70
2022/12/26 08:26:48;;;;;;;0.10;0.10;;;8.70;99.90;;;;;;5017914;28;20046;-70
2022/12/26 08:29:14;;;;;;;0.40;0.40;;;8.70;99.90;;;;;;5026761;28;20045;-70
2022/12/26 08:31:40;;;;;;;0.10;0.10;;;8.70;99.90;;;;;;5015974;28;20045;-70
2022/12/26 08:34:05;;;;;;;0.10;0.10;;;8.70;99.90;;;;;;5027223;28;20076;-71
2022/12/26 08:36:31;;;;;;;0.70;0.70;;;8.60;99.90;;;;;;5024539;28;20045;-71
2022/12/26 08:38:57;;;;;;;3.75;1.35;;;8.60;99.90;;;;;;5015367;28;20120;-70
2022/12/26 08:41:23;;;;;;;1.00;0.95;;;8.60;99.90;;;;;;5023435;28;20052;-71
2022/12/26 08:43:51;;;;;;;1.60;0.52;;;8.60;99.90;;;;;;5025593;28;20043;-70
2022/12/26 08:46:19;;;;;;;0.28;0.28;;;8.60;99.90;;;;;;5021984;28;20045;-70
2022/12/26 08:48:45;;;;;;;0.10;0.10;;;8.60;99.90;;;;;;5009166;28;20613;-70
2022/12/26 08:51:19;;;;;;;0.10;0.10;;;8.60;99.90;;;;;;4991347;28;20046;-70
2022/12/26 08:53:48;;;;;;;0.10;0.10;;;8.60;99.90;;;;;;5008926;28;20046;-71
2022/12/26 08:56:16;;;;;;;0.10;0.10;;;8.60;99.90;;;;;;4987319;28;20052;-70
2022/12/26 08:58:42;;;;;;;0.25;0.25;;;8.50;99.90;;;;;;4988702;28;20045;-70
2022/12/26 09:01:19;;;;;;;0.10;0.10;;;8.60;99.90;;;;;;4989933;28;20038;-70
2022/12/26 09:03:46;;;;;;;0.25;0.25;;;8.60;99.90;;;;;;4998761;28;20046;-70
2022/12/26 09:06:13;;;;;;;2.92;0.73;;;8.70;99.90;;;;;;5004590;28;20033;-71
2022/12/26 09:08:40;;;;;;;0.63;0.63;;;8.60;99.90;;;;;;4991667;28;20390;-71
2022/12/26 09:11:15;;;;;;;0.10;0.10;;;8.50;99.90;;;;;;5007959;28;20081;-70
2022/12/26 09:13:42;;;;;;;0.45;0.45;;;8.40;99.90;;;;;;4988953;28;20096;-70
2022/12/26 09:16:12;;;;;;;0.43;0.43;;;8.30;99.90;;;;;;4990946;28;20053;-71
2022/12/26 09:18:39;;;;;;;0.10;0.10;;;8.20;99.90;;;;;;5008250;28;20050;-71
2022/12/26 09:21:09;;;;;;;0.10;0.10;;;8.10;99.90;;;;;;4983771;28;20414;-69
2022/12/26 09:23:36;;;;;;;0.57;0.57;;;8.00;99.90;;;;;;4990024;28;20084;-71
2022/12/26 09:26:05;;;;;;;0.10;0.10;;;8.00;99.90;;;;;;5008070;28;20041;-70
2022/12/26 09:28:31;;;;;;;0.10;0.10;;;7.80;99.90;;;;;;5006562;28;20152;-71
2022/12/26 09:31:01;;;;;;;0.05;0.05;;;7.70;99.90;;;;;;4985390;28;20033;-71
2022/12/26 09:33:27;;;;;;;0.40;0.40;;;7.70;99.90;;;;;;5006272;28;20037;-71
2022/12/26 09:35:52;;;;;;;0.10;0.10;;;7.70;99.90;;;;;;4991472;28;20389;-71
2022/12/26 09:38:19;;;;;;;0.20;0.20;;;7.70;99.90;;;;;;4993467;28;20092;-71
2022/12/26 09:41:15;;;;;;;0.10;0.10;;;7.70;99.90;;;;;;5010912;28;20049;-70
2022/12/26 09:44:02;;;;;;;4.38;1.00;;;7.70;99.90;;;;;;4991862;28;20050;-71
2022/12/26 09:46:41;;;;;;;0.00;0.00;;;7.70;99.90;;;;;;4995232;28;20448;-71
2022/12/26 09:49:39;;;;;;;0.00;0.00;;;7.70;99.90;;;;;;5032326;28;20128;-70
2022/12/26 09:52:21;;;;;;;0.10;0.10;;;7.80;99.90;;;;;;5029495;28;20057;-71
2022/12/26 09:54:52;;;;;;;0.13;0.13;;;7.80;99.90;;;;;;5030226;28;20091;-71
2022/12/26 09:57:22;;;;;;;1.17;1.17;;;7.80;99.90;;;;;;5031365;28;20045;-71
2022/12/26 09:59:57;;;;;;;0.10;0.10;;;7.80;99.90;;;;;;5029920;28;20033;-71
2022/12/26 10:02:25;;;;;;;0.10;0.10;;;7.80;99.90;;;;;;5027072;28;20057;-71
2022/12/26 10:04:52;;;;;;;0.00;0.00;;;7.80;99.90;;;;;;5031200;28;20037;-71
2022/12/26 10:07:46;;;;;;;1.75;1.00;;;7.80;99.90;;;;;;5027435;28;20045;-71
2022/12/26 10:10:20;;;;;;;0.10;0.10;;;7.80;99.90;;;;;;5020669;28;20497;-71
2022/12/26 10:13:22;;;;;;;0.10;0.10;;;7.70;99.90;;;;;;5022984;28;20129;-71
2022/12/26 10:16:02;;;;;;;0.10;0.10;;;7.60;99.90;;;;;;5025351;28;20167;-71
2022/12/26 10:18:51;;;;;;;0.10;0.10;;;7.50;99.90;;;;;;5026396;28;20506;-71
2022/12/26 10:21:41;;;;;;;0.10;0.10;;;7.60;99.90;;;;;;5031754;28;20046;-71
2022/12/26 10:24:22;;;;;;;0.20;0.20;;;7.60;99.90;;;;;;5026524;28;20085;-71
2022/12/26 10:26:53;;;;;;;0.10;0.10;;;7.50;99.90;;;;;;5028275;28;20037;-70
2022/12/26 10:29:28;;;;;;;0.00;0.00;;;7.50;99.90;;;;;;5029419;28;20104;-70
2022/12/26 10:32:22;;;;;;;0.10;0.10;;;7.50;99.90;;;;;;5026773;28;20045;-70
2022/12/26 10:34:48;;;;;;;0.10;0.10;;;7.40;99.90;;;;;;4983391;28;20065;-67
2022/12/26 10:37:18;;;;;;;0.10;0.10;;;7.50;99.90;;;;;;5029260;28;20049;-68
2022/12/26 10:39:50;;;;;;;0.10;0.10;;;7.50;99.90;;;;;;5021660;28;20045;-68
2022/12/26 10:42:38;;;;;;;22.90;1.27;;;7.60;99.90;;;;;;5029244;28;20048;-67
2022/12/26 10:45:17;;;;;;;0.10;0.10;;;7.60;99.90;;;;;;5018934;28;20561;-66
2022/12/26 10:47:48;;;;;;;0.10;0.10;;;7.60;99.90;;;;;;5026688;28;20071;-71
2022/12/26 10:50:29;;;;;;;0.10;0.10;;;7.60;99.90;;;;;;5029862;28;20049;-71
2022/12/26 10:52:57;;;;;;;0.10;0.10;;;7.60;99.90;;;;;;5027166;28;20103;-71
2022/12/26 10:55:31;;;;;;;0.10;0.10;;;7.60;99.90;;;;;;5031114;28;20038;-71
2022/12/26 10:58:02;;;;;;;0.10;0.10;;;7.60;99.90;;;;;;5028427;28;20560;-71
2022/12/26 11:00:28;;;;;;;0.10;0.10;;;7.60;99.90;;;;;;5027792;28;20069;-72
2022/12/26 11:03:15;;;;;;;0.00;0.00;;;7.50;99.90;;;;;;5023398;28;20077;-72
2022/12/26 11:06:02;;;;;;;0.10;0.10;;;7.60;99.90;;;;;;5027285;28;20115;-71
2022/12/26 11:08:46;;;;;;;0.10;0.10;;;7.60;99.90;;;;;;5016090;28;20397;-71
2022/12/26 11:11:13;;;;;;;0.00;0.00;;;7.60;99.90;;;;;;5028265;28;20673;-71
2022/12/26 11:13:47;;;;;;;0.10;0.10;;;7.60;99.90;;;;;;5027606;28;20139;-71
2022/12/26 11:16:36;;;;;;;0.20;0.20;;;7.60;99.90;;;;;;5024668;28;20054;-71
2022/12/26 11:19:03;;;;;;;0.10;0.10;;;7.60;99.90;;;;;;5015214;28;20034;-71
2022/12/26 11:21:31;;;;;;;0.10;0.10;;;7.70;99.90;;;;;;5028859;28;20580;-71
2022/12/26 11:24:09;;;;;;;1.13;1.05;;;7.70;99.90;;;;;;5028235;28;20064;-71
2022/12/26 11:26:36;;;;;;;0.10;0.10;;;7.60;99.90;;;;;;5026050;28;20511;-71
2022/12/26 11:29:10;;;;;;;0.40;0.40;;;7.60;99.90;;;;;;5027669;28;20120;-71
2022/12/26 11:31:37;;;;;;;0.10;0.10;;;7.60;99.90;;;;;;5026876;28;20490;-71
2022/12/26 11:34:08;;;;;;;1.00;0.90;;;7.60;99.90;;;;;;5028122;28;20136;-71
2022/12/26 11:36:36;;;;;;;0.00;0.00;;;7.70;99.90;;;;;;5028848;28;20045;-71
2022/12/26 11:39:07;;;;;;;1.30;1.23;;;7.70;99.90;;;;;;5029008;28;20397;-71
2022/12/26 11:41:39;;;;;;;24.75;3.17;;;7.80;99.90;;;;;;5027985;28;20132;-71
2022/12/26 11:44:13;;;;;;;0.10;0.10;;;7.80;99.90;;;;;;5030302;28;20053;-71
2022/12/26 11:46:55;;;;;;;0.20;0.20;;;8.00;99.90;;;;;;5025137;28;20049;-71
2022/12/26 11:49:33;;;;;;;0.10;0.10;;;8.00;99.90;;;;;;5029431;28;20524;-71
2022/12/26 11:52:18;;;;;;;0.10;0.10;;;8.00;99.90;;;;;;5024467;28;20045;-71
2022/12/26 11:54:49;;;;;;;0.20;0.20;;;8.00;99.90;;;;;;5024723;28;20453;-71
2022/12/26 11:57:22;;;;;;;0.08;0.08;;;8.00;99.90;;;;;;5028622;28;20041;-71
2022/12/26 11:59:48;;;;;;;0.25;0.25;;;8.00;99.90;;;;;;5027336;28;20413;-71
2022/12/26 12:02:22;;;;;;;0.10;0.10;;;8.10;99.90;;;;;;5012665;28;20593;-71
2022/12/26 12:04:49;;;;;;;0.10;0.10;;;8.10;99.90;;;;;;5027976;28;20076;-71
2022/12/26 12:07:41;;;;;;;0.10;0.10;;;8.20;99.90;;;;;;5021373;28;20393;-70
2022/12/26 12:10:25;;;;;;;14.25;1.77;;;8.50;99.90;;;;;;5026815;28;20046;-71
2022/12/26 12:13:10;;;;;;;0.10;0.10;;;8.70;99.90;;;;;;5024388;28;20516;-72
2022/12/26 12:15:56;;;;;;;0.10;0.10;;;8.80;99.90;;;;;;5027546;28;20477;-71
2022/12/26 12:18:47;;;;;;;1.17;0.98;;;9.10;99.90;;;;;;5027288;28;20049;-71
2022/12/26 12:21:38;;;;;;;0.10;0.10;;;9.40;99.90;;;;;;5025605;28;20106;-72
2022/12/26 12:24:07;;;;;;;0.32;0.32;;;9.50;99.90;;;;;;5028962;28;20563;-72
2022/12/26 12:26:55;;;;;;;0.00;0.00;;;9.40;99.90;;;;;;5026862;28;20045;-72
2022/12/26 12:29:41;;;;;;;0.10;0.10;;;9.30;99.90;;;;;;5027496;28;20124;-71
2022/12/26 12:32:12;;;;;;;0.10;0.10;;;9.10;99.90;;;;;;5023956;28;20054;-71
2022/12/26 12:35:27;;;;;;;0.57;0.57;;;9.00;99.90;;;;;;5023822;28;20050;-71
2022/12/26 12:38:01;;;;;;;0.10;0.10;;;9.00;99.90;;;;;;4964499;28;20129;-71
2022/12/26 12:40:41;;;;;;;0.10;0.10;;;9.10;99.90;;;;;;4965355;28;20733;-72
2022/12/26 12:43:40;;;;;;;0.20;0.20;;;9.20;99.90;;;;;;5003605;28;20050;-72
2022/12/26 12:46:49;;;;;;;0.00;0.00;;;9.20;99.90;;;;;;5021495;28;20049;-72
2022/12/26 12:49:14;;;;;;;0.38;0.38;;;9.40;99.90;;;;;;5024308;28;20061;-72
2022/12/26 12:51:52;;;;;;;0.00;0.00;;;9.20;99.90;;;;;;5020968;28;20048;-72
2022/12/26 12:54:37;;;;;;;0.10;0.10;;;9.00;99.90;;;;;;5028062;28;20061;-73
2022/12/26 12:57:29;;;;;;;0.52;0.52;;;8.80;99.90;;;;;;5023327;28;20041;-72
2022/12/26 13:00:15;;;;;;;0.10;0.10;;;8.60;99.90;;;;;;5023783;28;20064;-73
2022/12/26 13:02:51;;;;;;;0.20;0.20;;;8.60;99.90;;;;;;5022177;28;20054;-72
2022/12/26 13:06:00;;;;;;;0.52;0.50;;;8.50;99.90;;;;;;5017722;28;20564;-72
2022/12/26 13:08:30;;;;;;;0.10;0.10;;;8.50;99.90;;;;;;5024084;28;20681;-73
2022/12/26 13:11:12;;;;;;;2.53;1.35;;;8.70;99.90;;;;;;5022239;28;20099;-71
2022/12/26 13:13:51;;;;;;;0.10;0.10;;;9.00;99.90;;;;;;5023743;28;20046;-72
2022/12/26 13:16:21;;;;;;;0.10;0.10;;;9.10;99.90;;;;;;5022493;28;20085;-69
2022/12/26 13:19:11;;;;;;;0.00;0.00;;;9.00;99.90;;;;;;5007800;28;20048;-70
2022/12/26 13:21:38;;;;;;;0.17;0.17;;;8.80;99.90;;;;;;5021848;28;20084;-70
2022/12/26 13:24:24;;;;;;;0.10;0.10;;;8.70;99.90;;;;;;5023856;28;20493;-70
2022/12/26 13:26:57;;;;;;;2.15;1.95;;;8.90;99.90;;;;;;5024362;28;20037;-69
2022/12/26 13:29:40;;;;;;;0.20;0.20;;;9.20;99.90;;;;;;5027740;28;20048;-71
2022/12/26 13:32:22;;;;;;;0.10;0.10;;;9.00;99.90;;;;;;5024708;28;20128;-70
2022/12/26 13:34:50;;;;;;;0.03;0.03;;;8.90;99.90;;;;;;5021801;28;20033;-70
2022/12/26 13:37:52;;;;;;;0.60;0.60;;;9.00;99.90;;;;;;5026037;28;20117;-70
2022/12/26 13:40:23;;;;;;;0.10;0.10;;;8.90;99.90;;;;;;4996988;28;20549;-70
2022/12/26 13:45:53;;;;;;;0.20;0.20;;;8.90;99.90;;;;;;4989361;28;20132;-69
2022/12/26 13:48:26;;;;;;;0.10;0.10;;;8.70;99.90;;;;;;5024353;28;20057;-69
2022/12/26 13:50:54;;;;;;;0.10;0.10;;;8.60;99.90;;;;;;5024468;28;20046;-69
2022/12/26 13:53:40;;;;;;;1.05;0.82;;;8.50;99.90;;;;;;5025041;28;20045;-69
2022/12/26 13:56:18;;;;;;;0.47;0.47;;;8.40;99.90;;;;;;5025294;28;20125;-70
2022/12/26 13:58:54;;;;;;;0.10;0.10;;;8.40;99.90;;;;;;5027218;28;20124;-70
2022/12/26 14:01:51;;;;;;;0.65;0.60;;;8.40;99.90;;;;;;5021942;28;20123;-69
2022/12/26 14:04:36;;;;;;;0.50;0.50;;;8.40;99.90;;;;;;5022052;28;20132;-70
2022/12/26 14:07:32;;;;;;;0.10;0.10;;;8.30;99.90;;;;;;5026623;28;20533;-69
2022/12/26 14:10:10;;;;;;;0.10;0.10;;;8.30;99.90;;;;;;5023565;28;20053;-70
2022/12/26 14:12:49;;;;;;;0.15;0.15;;;8.30;99.90;;;;;;5023415;28;20508;-70
2022/12/26 14:15:36;;;;;;;0.08;0.08;;;8.30;99.90;;;;;;5021148;28;20041;-70
2022/12/26 14:18:20;;;;;;;0.40;0.40;;;8.30;99.90;;;;;;5025623;28;20430;-69
2022/12/26 14:20:50;;;;;;;;;;;8.20;99.90;;;;;;5023385;28;20588;-69
2022/12/26 14:23:27;;;;;;;0.10;0.10;;;8.10;99.90;;;;;;5030121;28;20389;-70
2022/12/26 14:26:21;;;;;;;0.10;0.10;;;8.10;99.90;;;;;;5029972;28;20042;-70
2022/12/26 14:29:11;;;;;;;0.10;0.10;;;8.00;99.90;;;;;;5030370;28;20049;-69
2022/12/26 14:32:18;;;;;;;0.10;0.10;;;8.00;99.90;;;;;;5028527;28;20482;-70
2022/12/26 14:35:08;;;;;;;2.20;1.13;;;8.00;99.90;;;;;;5028783;28;20502;-69
2022/12/26 14:38:09;;;;;;;0.10;0.10;;;7.90;99.90;;;;;;5029144;28;20072;-70
2022/12/26 14:40:36;;;;;;;16.70;1.08;;;7.90;99.90;;;;;;5021232;28;20049;-69
2022/12/26 14:43:12;;;;;;;0.35;0.32;;;7.80;99.90;;;;;;5026406;28;20087;-69
2022/12/26 14:45:44;;;;;;;0.10;0.10;;;7.70;99.90;;;;;;5028874;28;20589;-69
2022/12/26 14:48:16;;;;;;;0.10;0.10;;;7.70;99.90;;;;;;5028887;28;20617;-69
2022/12/26 14:50:43;;;;;;;0.10;0.10;;;7.70;99.90;;;;;;5025209;28;20050;-69
2022/12/26 14:53:27;;;;;;;0.10;0.10;;;7.60;99.90;;;;;;5029763;28;20045;-69
2022/12/26 14:55:52;;;;;;;0.10;0.10;;;7.60;99.90;;;;;;5029055;28;20052;-69
2022/12/26 14:58:30;;;;;;;0.60;0.55;;;7.50;99.90;;;;;;5026939;28;20057;-70
2022/12/26 15:01:16;;;;;;;1.63;0.63;;;7.60;99.90;;;;;;5026781;28;20037;-70
2022/12/26 15:03:48;;;;;;;0.10;0.10;;;7.50;99.90;;;;;;5019191;28;20104;-69
2022/12/26 15:06:27;;;;;;;0.10;0.10;;;7.40;99.90;;;;;;5024244;28;20494;-70
2022/12/26 15:09:28;;;;;;;0.05;0.05;;;7.40;99.90;;;;;;5028874;28;20041;-70
2022/12/26 15:12:31;;;;;;;4.30;0.73;;;7.30;99.90;;;;;;5020802;28;20040;-69
2022/12/26 15:15:34;;;;;;;0.10;0.10;;;7.30;99.90;;;;;;5024843;28;20198;-69
2022/12/26 15:18:11;;;;;;;0.10;0.10;;;7.30;99.90;;;;;;5025219;28;20041;-69
2022/12/26 15:21:01;;;;;;;8.15;1.00;;;7.20;99.90;;;;;;5025379;28;20049;-68
2022/12/26 15:23:48;;;;;;;0.10;0.10;;;7.20;99.90;;;;;;5027339;28;20081;-68
2022/12/26 15:26:31;;;;;;;0.00;0.00;;;7.10;99.90;;;;;;5025922;28;20045;-69
2022/12/26 15:29:15;;;;;;;3.63;1.88;;;7.10;99.90;;;;;;5027664;28;20603;-68
2022/12/26 15:31:53;;;;;;;0.10;0.10;;;7.20;99.90;;;;;;5016303;28;20136;-67
2022/12/26 15:34:59;;;;;;;0.10;0.10;;;7.20;99.90;;;;;;5025410;28;20482;-68
2022/12/26 15:37:36;;;;;;;0.20;0.20;;;7.10;99.90;;;;;;5026758;28;20556;-69